EXS869Z EGCC-LEPA
Flight info
| Callsign | EXS869Z |
|---|---|
| Flight time | 2h 11m |
| Altitude | 41000 |
| Route | LISTO P18 TELBA L151 KIDLI UN859 SOPIL DCT BALAN DCT EVPOK DCT NARAK DCT GAI DCT LOMRA DCT ROCAN DCT IBRAP DCT LUKEV DCT LORES |
| Aircraft | A332/H-SDE3GHIJ2J3J5M1RVWXY/LB2D1 |
Departure
| Time | 2026-05-04 13:01 |
|---|---|
| Airport | Manchester Airport (EGCC) |
Arrival
| Time | 2026-05-04 15:12 |
|---|---|
| Airport | Palma de Mallorca Airport (LEPA) |
| Time | Latitude | Longitude | Altitude | Speed | Heading |
|---|---|---|---|---|---|
| 2026-05-04 12:16 | 53.36405 | -2.27668 | 259 ft | 0 kts | 45° |
| 2026-05-04 12:50 | 53.36404 | -2.27669 | 259 ft | 1 kts | 45° |
| 2026-05-04 12:51 | 53.36387 | -2.27697 | 259 ft | 4 kts | 45° |
| 2026-05-04 12:51 | 53.36368 | -2.27729 | 259 ft | 4 kts | 45° |
| 2026-05-04 12:51 | 53.36349 | -2.27761 | 259 ft | 4 kts | 45° |
| 2026-05-04 12:51 | 53.36341 | -2.27774 | 259 ft | 0 kts | 45° |
| 2026-05-04 12:55 | 53.36347 | -2.27768 | 259 ft | 1 kts | 32° |
| 2026-05-04 12:55 | 53.36353 | -2.27773 | 259 ft | 1 kts | 346° |
| 2026-05-04 12:56 | 53.36358 | -2.27790 | 259 ft | 4 kts | 304° |
| 2026-05-04 12:56 | 53.36384 | -2.27878 | 259 ft | 11 kts | 279° |
| 2026-05-04 12:56 | 53.36349 | -2.28002 | 259 ft | 13 kts | 222° |
| 2026-05-04 12:56 | 53.36267 | -2.28081 | 259 ft | 15 kts | 209° |
| 2026-05-04 12:57 | 53.36175 | -2.28142 | 259 ft | 14 kts | 174° |
| 2026-05-04 12:57 | 53.36093 | -2.28047 | 259 ft | 15 kts | 139° |
| 2026-05-04 12:57 | 53.36007 | -2.27923 | 259 ft | 17 kts | 140° |
| 2026-05-04 12:57 | 53.35895 | -2.27850 | 259 ft | 18 kts | 181° |
| 2026-05-04 12:58 | 53.35753 | -2.27875 | 251 ft | 22 kts | 185° |
| 2026-05-04 12:58 | 53.35608 | -2.27948 | 243 ft | 22 kts | 225° |
| 2026-05-04 12:58 | 53.35484 | -2.28126 | 238 ft | 22 kts | 210° |
| 2026-05-04 12:58 | 53.35339 | -2.28190 | 237 ft | 23 kts | 202° |
| 2026-05-04 12:59 | 53.35209 | -2.28349 | 241 ft | 24 kts | 229° |
| 2026-05-04 12:59 | 53.35098 | -2.28579 | 235 ft | 25 kts | 231° |
| 2026-05-04 12:59 | 53.34981 | -2.28801 | 230 ft | 26 kts | 225° |
| 2026-05-04 12:59 | 53.34869 | -2.28998 | 226 ft | 24 kts | 227° |
| 2026-05-04 13:00 | 53.34768 | -2.29195 | 218 ft | 19 kts | 230° |
| 2026-05-04 13:00 | 53.34681 | -2.29321 | 222 ft | 16 kts | 206° |
| 2026-05-04 13:00 | 53.34572 | -2.29315 | 220 ft | 17 kts | 148° |
| 2026-05-04 13:00 | 53.34558 | -2.29189 | 222 ft | 12 kts | 60° |
| 2026-05-04 13:01 | 53.34672 | -2.28946 | 230 ft | 53 kts | 51° |
| 2026-05-04 13:01 | 53.35049 | -2.28167 | 237 ft | 118 kts | 51° |
| 2026-05-04 13:01 | 53.35676 | -2.26864 | 331 ft | 167 kts | 50° |
| 2026-05-04 13:01 | 53.36455 | -2.25280 | 1026 ft | 179 kts | 50° |
| 2026-05-04 13:02 | 53.37253 | -2.23661 | 2038 ft | 183 kts | 52° |
| 2026-05-04 13:02 | 53.37769 | -2.21622 | 2651 ft | 201 kts | 83° |
| 2026-05-04 13:02 | 53.37466 | -2.19235 | 3125 ft | 229 kts | 122° |
| 2026-05-04 13:02 | 53.36209 | -2.17421 | 3653 ft | 250 kts | 152° |
| 2026-05-04 13:03 | 53.34523 | -2.16539 | 4406 ft | 260 kts | 174° |
| 2026-05-04 13:03 | 53.32684 | -2.16639 | 4876 ft | 267 kts | 186° |
| 2026-05-04 13:03 | 53.30838 | -2.17037 | 5375 ft | 269 kts | 188° |
| 2026-05-04 13:03 | 53.28965 | -2.17441 | 6326 ft | 272 kts | 187° |
| 2026-05-04 13:04 | 53.27075 | -2.17808 | 7308 ft | 275 kts | 186° |
| 2026-05-04 13:04 | 53.25162 | -2.18150 | 8280 ft | 279 kts | 186° |
| 2026-05-04 13:04 | 53.23211 | -2.18480 | 9252 ft | 284 kts | 186° |
| 2026-05-04 13:04 | 53.21240 | -2.18802 | 10258 ft | 285 kts | 186° |
| 2026-05-04 13:05 | 53.19210 | -2.19130 | 10797 ft | 304 kts | 186° |
| 2026-05-04 13:05 | 53.17058 | -2.19474 | 11217 ft | 323 kts | 186° |
| 2026-05-04 13:05 | 53.14780 | -2.19834 | 11918 ft | 332 kts | 186° |
| 2026-05-04 13:05 | 53.12455 | -2.20200 | 12767 ft | 337 kts | 186° |
| 2026-05-04 13:06 | 53.10103 | -2.20568 | 13650 ft | 341 kts | 186° |
| 2026-05-04 13:06 | 53.07723 | -2.20940 | 14437 ft | 345 kts | 186° |
| 2026-05-04 13:06 | 53.05312 | -2.21317 | 15206 ft | 349 kts | 186° |
| 2026-05-04 13:06 | 53.02880 | -2.21697 | 15980 ft | 353 kts | 186° |
| 2026-05-04 13:07 | 53.00416 | -2.22081 | 16741 ft | 357 kts | 185° |
| 2026-05-04 13:07 | 52.97930 | -2.22467 | 17517 ft | 360 kts | 186° |
| 2026-05-04 13:07 | 52.95420 | -2.22857 | 18338 ft | 363 kts | 186° |
| 2026-05-04 13:07 | 52.92889 | -2.23249 | 18976 ft | 367 kts | 185° |
| 2026-05-04 13:08 | 52.90327 | -2.23646 | 19603 ft | 372 kts | 185° |
| 2026-05-04 13:08 | 52.87735 | -2.24055 | 20229 ft | 376 kts | 186° |
| 2026-05-04 13:08 | 52.85170 | -2.24765 | 20821 ft | 381 kts | 190° |
| 2026-05-04 13:08 | 52.82555 | -2.25644 | 21395 ft | 386 kts | 191° |
| 2026-05-04 13:09 | 52.79885 | -2.26627 | 22022 ft | 390 kts | 192° |
| 2026-05-04 13:09 | 52.77259 | -2.27639 | 22597 ft | 395 kts | 192° |
| 2026-05-04 13:09 | 52.74569 | -2.28691 | 23183 ft | 399 kts | 192° |
| 2026-05-04 13:09 | 52.71854 | -2.29657 | 23850 ft | 398 kts | 188° |
| 2026-05-04 13:10 | 52.69092 | -2.30054 | 24378 ft | 399 kts | 179° |
| 2026-05-04 13:10 | 52.66319 | -2.29647 | 24811 ft | 402 kts | 168° |
| 2026-05-04 13:10 | 52.63634 | -2.28322 | 25262 ft | 404 kts | 155° |
| 2026-05-04 13:10 | 52.61130 | -2.26186 | 25735 ft | 406 kts | 148° |
| 2026-05-04 13:11 | 52.58717 | -2.23729 | 26207 ft | 408 kts | 145° |
| 2026-05-04 13:11 | 52.56349 | -2.21127 | 26684 ft | 410 kts | 144° |
| 2026-05-04 13:11 | 52.53990 | -2.18461 | 27147 ft | 413 kts | 143° |
| 2026-05-04 13:11 | 52.51645 | -2.15808 | 27598 ft | 416 kts | 143° |
| 2026-05-04 13:12 | 52.49247 | -2.13122 | 28090 ft | 418 kts | 145° |
| 2026-05-04 13:12 | 52.46836 | -2.10454 | 28577 ft | 420 kts | 145° |
| 2026-05-04 13:12 | 52.44394 | -2.07780 | 28992 ft | 423 kts | 145° |
| 2026-05-04 13:12 | 52.41932 | -2.05103 | 29405 ft | 427 kts | 146° |
| 2026-05-04 13:13 | 52.39438 | -2.02403 | 29826 ft | 430 kts | 146° |
| 2026-05-04 13:13 | 52.36931 | -1.99694 | 30222 ft | 433 kts | 146° |
| 2026-05-04 13:13 | 52.34408 | -1.96971 | 30575 ft | 435 kts | 146° |
| 2026-05-04 13:13 | 52.31872 | -1.94240 | 31009 ft | 436 kts | 146° |
| 2026-05-04 13:14 | 52.29328 | -1.91504 | 31380 ft | 439 kts | 146° |
| 2026-05-04 13:14 | 52.26765 | -1.88751 | 31733 ft | 442 kts | 146° |
| 2026-05-04 13:14 | 52.24218 | -1.86016 | 32079 ft | 445 kts | 147° |
| 2026-05-04 13:14 | 52.21626 | -1.83238 | 32474 ft | 446 kts | 147° |
| 2026-05-04 13:15 | 52.19034 | -1.80463 | 33022 ft | 444 kts | 147° |
| 2026-05-04 13:15 | 52.16459 | -1.77710 | 33541 ft | 442 kts | 147° |
| 2026-05-04 13:15 | 52.13890 | -1.74967 | 34006 ft | 441 kts | 147° |
| 2026-05-04 13:15 | 52.11323 | -1.72229 | 34393 ft | 441 kts | 147° |
| 2026-05-04 13:16 | 52.08753 | -1.69492 | 34747 ft | 441 kts | 147° |
| 2026-05-04 13:16 | 52.06184 | -1.66757 | 35078 ft | 441 kts | 147° |
| 2026-05-04 13:16 | 52.03614 | -1.64021 | 35397 ft | 442 kts | 147° |
| 2026-05-04 13:16 | 52.01050 | -1.61295 | 35796 ft | 440 kts | 147° |
| 2026-05-04 13:17 | 51.98483 | -1.58576 | 36157 ft | 440 kts | 147° |
| 2026-05-04 13:17 | 51.95950 | -1.55901 | 36458 ft | 440 kts | 147° |
| 2026-05-04 13:17 | 51.93381 | -1.53194 | 36705 ft | 442 kts | 147° |
| 2026-05-04 13:17 | 51.90790 | -1.50467 | 36964 ft | 444 kts | 147° |
| 2026-05-04 13:18 | 51.88198 | -1.47742 | 37262 ft | 444 kts | 147° |
| 2026-05-04 13:18 | 51.85603 | -1.45016 | 37578 ft | 444 kts | 147° |
| 2026-05-04 13:18 | 51.83015 | -1.42298 | 37943 ft | 443 kts | 147° |
| 2026-05-04 13:18 | 51.80426 | -1.39583 | 38208 ft | 444 kts | 147° |
| 2026-05-04 13:19 | 51.77745 | -1.37056 | 38472 ft | 445 kts | 154° |
| 2026-05-04 13:19 | 51.75878 | -1.35716 | 38647 ft | 445 kts | 159° |
| 2026-05-04 13:19 | 51.71980 | -1.33454 | 38945 ft | 445 kts | 162° |
| 2026-05-04 13:19 | 51.69032 | -1.31901 | 39173 ft | 445 kts | 163° |
| 2026-05-04 13:20 | 51.66075 | -1.30408 | 39372 ft | 445 kts | 163° |
| 2026-05-04 13:20 | 51.63152 | -1.28958 | 39578 ft | 446 kts | 163° |
| 2026-05-04 13:20 | 51.60184 | -1.27488 | 39779 ft | 446 kts | 163° |
| 2026-05-04 13:20 | 51.57223 | -1.26017 | 40001 ft | 446 kts | 163° |
| 2026-05-04 13:21 | 51.54258 | -1.24536 | 40192 ft | 446 kts | 163° |
| 2026-05-04 13:21 | 51.51292 | -1.23048 | 40393 ft | 447 kts | 163° |
| 2026-05-04 13:21 | 51.48379 | -1.21284 | 40573 ft | 448 kts | 158° |
| 2026-05-04 13:21 | 51.45516 | -1.19299 | 40759 ft | 448 kts | 157° |
| 2026-05-04 13:22 | 51.42674 | -1.17252 | 40948 ft | 448 kts | 156° |
| 2026-05-04 13:22 | 51.36954 | -1.13035 | 41016 ft | 457 kts | 156° |
| 2026-05-04 13:23 | 51.31176 | -1.08764 | 41015 ft | 457 kts | 156° |
| 2026-05-04 13:23 | 51.25396 | -1.04520 | 41020 ft | 456 kts | 156° |
| 2026-05-04 13:24 | 51.19624 | -1.00309 | 41022 ft | 456 kts | 156° |
| 2026-05-04 13:24 | 51.13851 | -0.96112 | 41021 ft | 456 kts | 156° |
| 2026-05-04 13:25 | 51.06167 | -0.90543 | 41011 ft | 455 kts | 156° |
| 2026-05-04 13:25 | 50.99469 | -0.85704 | 41009 ft | 455 kts | 156° |
| 2026-05-04 13:26 | 50.94636 | -0.82223 | 41005 ft | 455 kts | 156° |
| 2026-05-04 13:26 | 50.88913 | -0.78110 | 41008 ft | 455 kts | 156° |
| 2026-05-04 13:27 | 50.83329 | -0.73389 | 41011 ft | 456 kts | 150° |
| 2026-05-04 13:27 | 50.77952 | -0.68038 | 41014 ft | 456 kts | 148° |
| 2026-05-04 13:28 | 50.72612 | -0.62582 | 41015 ft | 456 kts | 148° |
| 2026-05-04 13:28 | 50.67314 | -0.57178 | 41014 ft | 456 kts | 148° |
| 2026-05-04 13:29 | 50.61960 | -0.51754 | 41012 ft | 456 kts | 149° |
| 2026-05-04 13:29 | 50.56603 | -0.46354 | 41015 ft | 457 kts | 149° |
| 2026-05-04 13:30 | 50.51243 | -0.40969 | 41015 ft | 457 kts | 149° |
| 2026-05-04 13:30 | 50.45879 | -0.35593 | 41010 ft | 457 kts | 149° |
| 2026-05-04 13:31 | 50.40549 | -0.30267 | 41007 ft | 457 kts | 149° |
| 2026-05-04 13:31 | 50.35179 | -0.24913 | 41006 ft | 457 kts | 149° |
| 2026-05-04 13:32 | 50.29812 | -0.19578 | 41007 ft | 456 kts | 149° |
| 2026-05-04 13:32 | 50.24452 | -0.14263 | 41008 ft | 456 kts | 149° |
| 2026-05-04 13:33 | 50.19086 | -0.08957 | 41006 ft | 456 kts | 149° |
| 2026-05-04 13:33 | 50.13749 | -0.03694 | 41002 ft | 456 kts | 149° |
| 2026-05-04 13:34 | 50.08067 | 0.00575 | 41006 ft | 452 kts | 164° |
| 2026-05-04 13:34 | 50.02009 | 0.03274 | 41001 ft | 452 kts | 167° |
| 2026-05-04 13:35 | 49.92832 | 0.06816 | 40994 ft | 452 kts | 168° |
| 2026-05-04 13:36 | 49.86765 | 0.09148 | 40997 ft | 452 kts | 167° |
| 2026-05-04 13:36 | 49.80655 | 0.11525 | 40992 ft | 452 kts | 167° |
| 2026-05-04 13:37 | 49.74554 | 0.13906 | 40991 ft | 452 kts | 167° |
| 2026-05-04 13:37 | 49.68453 | 0.16285 | 40994 ft | 452 kts | 167° |
| 2026-05-04 13:38 | 49.62401 | 0.18703 | 40997 ft | 451 kts | 167° |
| 2026-05-04 13:38 | 49.56360 | 0.21145 | 40992 ft | 452 kts | 167° |
| 2026-05-04 13:39 | 49.50271 | 0.23600 | 40990 ft | 452 kts | 167° |
| 2026-05-04 13:39 | 49.44192 | 0.26038 | 40997 ft | 451 kts | 167° |
| 2026-05-04 13:40 | 49.38116 | 0.28465 | 40990 ft | 451 kts | 167° |
| 2026-05-04 13:40 | 49.32038 | 0.30887 | 40994 ft | 451 kts | 167° |
| 2026-05-04 13:41 | 49.25979 | 0.33386 | 40984 ft | 451 kts | 166° |
| 2026-05-04 13:41 | 49.19973 | 0.35930 | 40966 ft | 450 kts | 166° |
| 2026-05-04 13:42 | 49.10907 | 0.39760 | 40966 ft | 450 kts | 166° |
| 2026-05-04 13:42 | 49.04863 | 0.42293 | 40965 ft | 450 kts | 166° |
| 2026-05-04 13:43 | 48.98827 | 0.44814 | 40959 ft | 449 kts | 167° |
| 2026-05-04 13:43 | 48.92797 | 0.47325 | 40964 ft | 449 kts | 167° |
| 2026-05-04 13:44 | 48.86765 | 0.49832 | 40965 ft | 449 kts | 167° |
| 2026-05-04 13:44 | 48.80763 | 0.52320 | 40962 ft | 450 kts | 167° |
| 2026-05-04 13:45 | 48.74719 | 0.54760 | 40960 ft | 449 kts | 167° |
| 2026-05-04 13:45 | 48.68664 | 0.57127 | 40962 ft | 449 kts | 167° |
| 2026-05-04 13:46 | 48.62600 | 0.59484 | 40958 ft | 449 kts | 167° |
| 2026-05-04 13:46 | 48.56560 | 0.61836 | 40960 ft | 447 kts | 167° |
| 2026-05-04 13:47 | 48.50529 | 0.64201 | 40957 ft | 447 kts | 167° |
| 2026-05-04 13:47 | 48.44520 | 0.66637 | 40956 ft | 447 kts | 167° |
| 2026-05-04 13:48 | 48.38544 | 0.69077 | 40955 ft | 447 kts | 167° |
| 2026-05-04 13:48 | 48.32547 | 0.71516 | 40956 ft | 447 kts | 167° |
| 2026-05-04 13:49 | 48.26542 | 0.73945 | 40952 ft | 446 kts | 167° |
| 2026-05-04 13:49 | 48.20533 | 0.76337 | 40947 ft | 446 kts | 167° |
| 2026-05-04 13:50 | 48.14522 | 0.78697 | 40948 ft | 446 kts | 167° |
| 2026-05-04 13:50 | 48.08505 | 0.81053 | 40951 ft | 447 kts | 167° |
| 2026-05-04 13:51 | 48.02493 | 0.83405 | 40946 ft | 446 kts | 167° |
| 2026-05-04 13:51 | 47.96517 | 0.85739 | 40935 ft | 446 kts | 167° |
| 2026-05-04 13:52 | 47.87535 | 0.89237 | 40938 ft | 447 kts | 167° |
| 2026-05-04 13:53 | 47.81519 | 0.91574 | 40936 ft | 447 kts | 167° |
| 2026-05-04 13:53 | 47.75499 | 0.93907 | 40924 ft | 446 kts | 168° |
| 2026-05-04 13:54 | 47.66485 | 0.97388 | 40927 ft | 446 kts | 168° |
| 2026-05-04 13:55 | 47.57521 | 1.00837 | 40918 ft | 446 kts | 168° |
| 2026-05-04 13:55 | 47.48519 | 1.04289 | 40918 ft | 445 kts | 168° |
| 2026-05-04 13:56 | 47.42465 | 1.06134 | 40922 ft | 442 kts | 178° |
| 2026-05-04 13:57 | 47.33268 | 1.06317 | 40918 ft | 440 kts | 182° |
| 2026-05-04 13:58 | 47.21011 | 1.05942 | 40919 ft | 440 kts | 183° |
| 2026-05-04 13:58 | 47.11839 | 1.05712 | 40919 ft | 440 kts | 182° |
| 2026-05-04 13:59 | 47.05708 | 1.05571 | 40914 ft | 440 kts | 182° |
| 2026-05-04 14:00 | 46.96518 | 1.05268 | 40916 ft | 440 kts | 183° |
| 2026-05-04 14:00 | 46.87388 | 1.04858 | 40922 ft | 439 kts | 183° |
| 2026-05-04 14:01 | 46.81268 | 1.04590 | 40923 ft | 439 kts | 183° |
| 2026-05-04 14:02 | 46.72104 | 1.04199 | 40918 ft | 439 kts | 183° |
| 2026-05-04 14:02 | 46.65987 | 1.03940 | 40909 ft | 439 kts | 183° |
| 2026-05-04 14:03 | 46.59871 | 1.03682 | 40908 ft | 439 kts | 183° |
| 2026-05-04 14:03 | 46.53793 | 1.03469 | 40911 ft | 440 kts | 180° |
| 2026-05-04 14:04 | 46.44700 | 1.05560 | 40913 ft | 443 kts | 170° |
| 2026-05-04 14:04 | 46.38686 | 1.07580 | 40914 ft | 444 kts | 169° |
| 2026-05-04 14:05 | 46.29669 | 1.10655 | 40914 ft | 443 kts | 169° |
| 2026-05-04 14:06 | 46.23664 | 1.12663 | 40917 ft | 443 kts | 169° |
| 2026-05-04 14:06 | 46.17661 | 1.14654 | 40921 ft | 443 kts | 169° |
| 2026-05-04 14:07 | 46.11655 | 1.16640 | 40914 ft | 443 kts | 169° |
| 2026-05-04 14:07 | 46.05682 | 1.18611 | 40916 ft | 443 kts | 170° |
| 2026-05-04 14:08 | 45.99675 | 1.20590 | 40909 ft | 442 kts | 170° |
| 2026-05-04 14:08 | 45.93668 | 1.22565 | 40910 ft | 442 kts | 170° |
| 2026-05-04 14:09 | 45.84663 | 1.25516 | 40909 ft | 442 kts | 170° |
| 2026-05-04 14:10 | 45.75650 | 1.28460 | 40906 ft | 443 kts | 170° |
| 2026-05-04 14:10 | 45.69642 | 1.30418 | 40917 ft | 443 kts | 170° |
| 2026-05-04 14:11 | 45.63667 | 1.32360 | 40919 ft | 443 kts | 170° |
| 2026-05-04 14:11 | 45.54651 | 1.35283 | 40922 ft | 442 kts | 170° |
| 2026-05-04 14:12 | 45.48649 | 1.37224 | 40916 ft | 442 kts | 170° |
| 2026-05-04 14:13 | 45.39679 | 1.40116 | 40919 ft | 442 kts | 170° |
| 2026-05-04 14:13 | 45.33681 | 1.42045 | 40917 ft | 442 kts | 170° |
| 2026-05-04 14:14 | 45.27682 | 1.43970 | 40914 ft | 442 kts | 170° |
| 2026-05-04 14:14 | 45.19723 | 1.46517 | 40914 ft | 444 kts | 170° |
| 2026-05-04 14:15 | 45.07672 | 1.50362 | 40910 ft | 442 kts | 171° |
| 2026-05-04 14:16 | 44.98680 | 1.53219 | 40911 ft | 442 kts | 171° |
| 2026-05-04 14:17 | 44.89738 | 1.56051 | 40914 ft | 441 kts | 171° |
| 2026-05-04 14:18 | 44.80743 | 1.58890 | 40913 ft | 441 kts | 171° |
| 2026-05-04 14:19 | 44.68782 | 1.62651 | 40918 ft | 441 kts | 171° |
| 2026-05-04 14:19 | 44.62788 | 1.64531 | 40912 ft | 441 kts | 171° |
| 2026-05-04 14:20 | 44.56791 | 1.66407 | 40912 ft | 441 kts | 171° |
| 2026-05-04 14:20 | 44.50790 | 1.68280 | 40909 ft | 442 kts | 171° |
| 2026-05-04 14:21 | 44.41776 | 1.71087 | 40911 ft | 442 kts | 171° |
| 2026-05-04 14:21 | 44.35766 | 1.72954 | 40908 ft | 443 kts | 172° |
| 2026-05-04 14:22 | 44.29731 | 1.74812 | 40908 ft | 443 kts | 172° |
| 2026-05-04 14:22 | 44.23705 | 1.76302 | 40905 ft | 442 kts | 175° |
| 2026-05-04 14:23 | 44.14590 | 1.78230 | 40905 ft | 441 kts | 175° |
| 2026-05-04 14:24 | 44.08520 | 1.79534 | 40905 ft | 441 kts | 175° |
| 2026-05-04 14:24 | 44.02452 | 1.80862 | 40903 ft | 441 kts | 175° |
| 2026-05-04 14:25 | 43.96391 | 1.82195 | 40898 ft | 439 kts | 175° |
| 2026-05-04 14:25 | 43.87312 | 1.83357 | 40905 ft | 435 kts | 180° |
| 2026-05-04 14:26 | 43.81277 | 1.83850 | 40894 ft | 435 kts | 180° |
| 2026-05-04 14:26 | 43.75276 | 1.84379 | 40902 ft | 433 kts | 180° |
| 2026-05-04 14:27 | 43.69274 | 1.84949 | 40901 ft | 432 kts | 180° |
| 2026-05-04 14:27 | 43.63271 | 1.85531 | 40902 ft | 432 kts | 180° |
| 2026-05-04 14:28 | 43.57311 | 1.86108 | 40907 ft | 432 kts | 180° |
| 2026-05-04 14:28 | 43.51321 | 1.86685 | 40902 ft | 431 kts | 180° |
| 2026-05-04 14:29 | 43.39352 | 1.87833 | 40896 ft | 431 kts | 180° |
| 2026-05-04 14:30 | 43.33352 | 1.88406 | 40909 ft | 432 kts | 180° |
| 2026-05-04 14:31 | 43.24382 | 1.89264 | 40910 ft | 432 kts | 180° |
| 2026-05-04 14:32 | 43.12374 | 1.90411 | 40906 ft | 433 kts | 181° |
| 2026-05-04 14:32 | 43.06363 | 1.90982 | 40888 ft | 433 kts | 181° |
| 2026-05-04 14:33 | 43.00385 | 1.91549 | 40883 ft | 433 kts | 181° |
| 2026-05-04 14:33 | 42.94374 | 1.92118 | 40898 ft | 433 kts | 181° |
| 2026-05-04 14:34 | 42.88371 | 1.92686 | 40898 ft | 433 kts | 181° |
| 2026-05-04 14:34 | 42.82358 | 1.93254 | 40892 ft | 432 kts | 181° |
| 2026-05-04 14:35 | 42.76353 | 1.93819 | 40899 ft | 433 kts | 181° |
| 2026-05-04 14:35 | 42.70338 | 1.94385 | 40896 ft | 433 kts | 181° |
| 2026-05-04 14:36 | 42.64363 | 1.95765 | 40904 ft | 438 kts | 172° |
| 2026-05-04 14:36 | 42.58490 | 1.97783 | 40901 ft | 439 kts | 171° |
| 2026-05-04 14:37 | 42.52576 | 1.99938 | 40905 ft | 441 kts | 171° |
| 2026-05-04 14:37 | 42.46644 | 2.02097 | 40913 ft | 441 kts | 171° |
| 2026-05-04 14:38 | 42.40711 | 2.04235 | 40912 ft | 441 kts | 171° |
| 2026-05-04 14:38 | 42.34758 | 2.06363 | 40913 ft | 441 kts | 171° |
| 2026-05-04 14:39 | 42.28852 | 2.08462 | 40917 ft | 441 kts | 171° |
| 2026-05-04 14:39 | 42.22897 | 2.10572 | 40920 ft | 442 kts | 171° |
| 2026-05-04 14:40 | 42.13969 | 2.13733 | 40932 ft | 442 kts | 171° |
| 2026-05-04 14:40 | 42.08026 | 2.15834 | 40932 ft | 441 kts | 171° |
| 2026-05-04 14:41 | 42.02087 | 2.17927 | 40934 ft | 441 kts | 171° |
| 2026-05-04 14:42 | 41.90232 | 2.22093 | 40933 ft | 440 kts | 172° |
| 2026-05-04 14:42 | 41.84297 | 2.24171 | 40935 ft | 440 kts | 172° |
| 2026-05-04 14:43 | 41.78405 | 2.26232 | 40938 ft | 440 kts | 172° |
| 2026-05-04 14:43 | 41.76071 | 2.27048 | 40938 ft | 440 kts | 172° |
| 2026-05-04 14:44 | 41.70167 | 2.29110 | 40927 ft | 440 kts | 172° |
| 2026-05-04 14:44 | 41.64256 | 2.31171 | 40942 ft | 440 kts | 172° |
| 2026-05-04 14:45 | 41.58317 | 2.33237 | 40934 ft | 439 kts | 172° |
| 2026-05-04 14:45 | 41.52432 | 2.35279 | 40926 ft | 439 kts | 172° |
| 2026-05-04 14:46 | 41.46503 | 2.37334 | 40938 ft | 439 kts | 172° |
| 2026-05-04 14:46 | 41.43535 | 2.38361 | 40800 ft | 443 kts | 172° |
| 2026-05-04 14:46 | 41.40552 | 2.39393 | 40158 ft | 440 kts | 173° |
| 2026-05-04 14:47 | 41.37597 | 2.40417 | 39236 ft | 438 kts | 173° |
| 2026-05-04 14:47 | 41.34677 | 2.41430 | 38615 ft | 428 kts | 174° |
| 2026-05-04 14:47 | 41.31828 | 2.42420 | 37980 ft | 415 kts | 174° |
| 2026-05-04 14:47 | 41.29117 | 2.43362 | 37520 ft | 401 kts | 174° |
| 2026-05-04 14:48 | 41.26453 | 2.44284 | 37054 ft | 388 kts | 174° |
| 2026-05-04 14:48 | 41.23877 | 2.45171 | 36594 ft | 377 kts | 174° |
| 2026-05-04 14:48 | 41.21335 | 2.46039 | 36145 ft | 377 kts | 174° |
| 2026-05-04 14:48 | 41.18810 | 2.46896 | 35664 ft | 381 kts | 174° |
| 2026-05-04 14:49 | 41.16221 | 2.47776 | 35142 ft | 384 kts | 174° |
| 2026-05-04 14:49 | 41.13626 | 2.48661 | 34572 ft | 387 kts | 174° |
| 2026-05-04 14:49 | 41.10999 | 2.49557 | 33892 ft | 392 kts | 174° |
| 2026-05-04 14:49 | 41.08342 | 2.50464 | 33124 ft | 396 kts | 173° |
| 2026-05-04 14:50 | 41.05668 | 2.51380 | 32455 ft | 398 kts | 173° |
| 2026-05-04 14:50 | 41.02976 | 2.52300 | 31739 ft | 400 kts | 173° |
| 2026-05-04 14:50 | 41.00298 | 2.53215 | 31023 ft | 404 kts | 173° |
| 2026-05-04 14:50 | 40.97569 | 2.54145 | 30433 ft | 406 kts | 172° |
| 2026-05-04 14:51 | 40.94818 | 2.55078 | 29892 ft | 409 kts | 173° |
| 2026-05-04 14:51 | 40.92061 | 2.56009 | 29273 ft | 408 kts | 172° |
| 2026-05-04 14:51 | 40.89323 | 2.56948 | 28727 ft | 405 kts | 172° |
| 2026-05-04 14:51 | 40.86596 | 2.57883 | 28139 ft | 402 kts | 172° |
| 2026-05-04 14:52 | 40.83900 | 2.58804 | 27598 ft | 398 kts | 172° |
| 2026-05-04 14:52 | 40.81234 | 2.59712 | 27072 ft | 394 kts | 173° |
| 2026-05-04 14:52 | 40.78581 | 2.60613 | 26517 ft | 392 kts | 173° |
| 2026-05-04 14:52 | 40.75944 | 2.61506 | 25952 ft | 390 kts | 173° |
| 2026-05-04 14:53 | 40.73340 | 2.62387 | 25405 ft | 389 kts | 173° |
| 2026-05-04 14:53 | 40.70720 | 2.63273 | 24861 ft | 387 kts | 172° |
| 2026-05-04 14:53 | 40.68115 | 2.64154 | 24303 ft | 386 kts | 172° |
| 2026-05-04 14:53 | 40.65514 | 2.65032 | 23749 ft | 385 kts | 172° |
| 2026-05-04 14:54 | 40.62922 | 2.65906 | 23144 ft | 384 kts | 172° |
| 2026-05-04 14:54 | 40.60337 | 2.66778 | 22578 ft | 381 kts | 172° |
| 2026-05-04 14:54 | 40.57818 | 2.67628 | 22022 ft | 377 kts | 172° |
| 2026-05-04 14:54 | 40.55281 | 2.68483 | 21506 ft | 375 kts | 172° |
| 2026-05-04 14:55 | 40.52758 | 2.69331 | 20966 ft | 373 kts | 172° |
| 2026-05-04 14:55 | 40.50271 | 2.70281 | 20421 ft | 375 kts | 165° |
| 2026-05-04 14:55 | 40.47891 | 2.71749 | 19851 ft | 378 kts | 158° |
| 2026-05-04 14:55 | 40.45585 | 2.73403 | 19292 ft | 377 kts | 156° |
| 2026-05-04 14:56 | 40.43300 | 2.75078 | 18743 ft | 375 kts | 156° |
| 2026-05-04 14:56 | 40.41021 | 2.76746 | 18205 ft | 373 kts | 156° |
| 2026-05-04 14:56 | 40.38753 | 2.78398 | 17586 ft | 371 kts | 155° |
| 2026-05-04 14:56 | 40.36508 | 2.80029 | 17041 ft | 368 kts | 155° |
| 2026-05-04 14:57 | 40.34273 | 2.81649 | 16492 ft | 364 kts | 155° |
| 2026-05-04 14:57 | 40.32063 | 2.83248 | 15964 ft | 361 kts | 155° |
| 2026-05-04 14:57 | 40.29891 | 2.84819 | 15697 ft | 350 kts | 156° |
| 2026-05-04 14:57 | 40.27837 | 2.86308 | 15609 ft | 334 kts | 156° |
| 2026-05-04 14:58 | 40.25819 | 2.87767 | 15501 ft | 321 kts | 156° |
| 2026-05-04 14:58 | 40.23924 | 2.89134 | 15302 ft | 311 kts | 156° |
| 2026-05-04 14:58 | 40.22024 | 2.90498 | 14845 ft | 311 kts | 156° |
| 2026-05-04 14:58 | 40.20742 | 2.91417 | 14554 ft | 311 kts | 156° |
| 2026-05-04 14:59 | 40.18237 | 2.93214 | 14014 ft | 309 kts | 156° |
| 2026-05-04 14:59 | 40.16359 | 2.94563 | 13610 ft | 307 kts | 156° |
| 2026-05-04 14:59 | 40.12644 | 2.97229 | 12788 ft | 302 kts | 156° |
| 2026-05-04 15:00 | 40.10809 | 2.98545 | 12402 ft | 299 kts | 156° |
| 2026-05-04 15:00 | 40.08995 | 2.99846 | 12006 ft | 296 kts | 156° |
| 2026-05-04 15:00 | 40.07198 | 3.01133 | 11612 ft | 293 kts | 156° |
| 2026-05-04 15:01 | 40.03643 | 3.03676 | 10840 ft | 289 kts | 156° |
| 2026-05-04 15:01 | 40.01880 | 3.04936 | 10457 ft | 287 kts | 156° |
| 2026-05-04 15:01 | 40.00153 | 3.06169 | 10078 ft | 286 kts | 155° |
| 2026-05-04 15:01 | 39.98419 | 3.07408 | 9700 ft | 283 kts | 156° |
| 2026-05-04 15:02 | 39.96692 | 3.08640 | 9311 ft | 282 kts | 156° |
| 2026-05-04 15:02 | 39.94979 | 3.09862 | 8933 ft | 280 kts | 156° |
| 2026-05-04 15:02 | 39.93234 | 3.10943 | 8553 ft | 275 kts | 166° |
| 2026-05-04 15:02 | 39.91381 | 3.11275 | 8187 ft | 267 kts | 184° |
| 2026-05-04 15:03 | 39.89538 | 3.11123 | 7813 ft | 264 kts | 188° |
| 2026-05-04 15:03 | 39.87711 | 3.10884 | 7454 ft | 263 kts | 189° |
| 2026-05-04 15:03 | 39.85897 | 3.10640 | 7106 ft | 262 kts | 189° |
| 2026-05-04 15:03 | 39.84081 | 3.10401 | 6977 ft | 262 kts | 188° |
| 2026-05-04 15:04 | 39.82269 | 3.10167 | 6958 ft | 262 kts | 188° |
| 2026-05-04 15:04 | 39.81061 | 3.10018 | 6964 ft | 263 kts | 188° |
| 2026-05-04 15:04 | 39.79241 | 3.09790 | 6963 ft | 263 kts | 188° |
| 2026-05-04 15:04 | 39.77419 | 3.09563 | 6959 ft | 263 kts | 188° |
| 2026-05-04 15:05 | 39.75596 | 3.09336 | 6927 ft | 262 kts | 189° |
| 2026-05-04 15:05 | 39.73200 | 3.09030 | 6448 ft | 261 kts | 191° |
| 2026-05-04 15:05 | 39.72011 | 3.08694 | 6244 ft | 255 kts | 201° |
| 2026-05-04 15:05 | 39.70540 | 3.07603 | 5953 ft | 236 kts | 223° |
| 2026-05-04 15:06 | 39.69538 | 3.06015 | 5547 ft | 226 kts | 236° |
| 2026-05-04 15:06 | 39.68725 | 3.04315 | 5158 ft | 218 kts | 238° |
| 2026-05-04 15:06 | 39.67953 | 3.02631 | 4987 ft | 215 kts | 238° |
| 2026-05-04 15:07 | 39.66483 | 2.99404 | 4670 ft | 205 kts | 238° |
| 2026-05-04 15:07 | 39.65747 | 2.97833 | 4280 ft | 201 kts | 238° |
| 2026-05-04 15:07 | 39.65032 | 2.96316 | 3858 ft | 193 kts | 237° |
| 2026-05-04 15:07 | 39.64340 | 2.94850 | 3412 ft | 188 kts | 238° |
| 2026-05-04 15:08 | 39.63666 | 2.93421 | 3049 ft | 182 kts | 238° |
| 2026-05-04 15:08 | 39.63026 | 2.92058 | 2790 ft | 173 kts | 237° |
| 2026-05-04 15:08 | 39.62418 | 2.90768 | 2570 ft | 163 kts | 238° |
| 2026-05-04 15:08 | 39.61844 | 2.89547 | 2396 ft | 154 kts | 237° |
| 2026-05-04 15:09 | 39.61300 | 2.88389 | 2188 ft | 147 kts | 237° |
| 2026-05-04 15:09 | 39.60784 | 2.87295 | 1998 ft | 136 kts | 240° |
| 2026-05-04 15:09 | 39.60312 | 2.86292 | 1825 ft | 126 kts | 238° |
| 2026-05-04 15:10 | 39.59410 | 2.84377 | 1494 ft | 124 kts | 238° |
| 2026-05-04 15:10 | 39.58963 | 2.83429 | 1288 ft | 122 kts | 237° |
| 2026-05-04 15:10 | 39.58085 | 2.81531 | 1027 ft | 125 kts | 236° |
| 2026-05-04 15:11 | 39.57637 | 2.80591 | 883 ft | 124 kts | 236° |
| 2026-05-04 15:11 | 39.57180 | 2.79650 | 687 ft | 122 kts | 237° |
| 2026-05-04 15:11 | 39.56743 | 2.78704 | 568 ft | 123 kts | 236° |
| 2026-05-04 15:11 | 39.56292 | 2.77755 | 368 ft | 124 kts | 238° |
| 2026-05-04 15:12 | 39.55856 | 2.76816 | 171 ft | 119 kts | 236° |
| 2026-05-04 15:12 | 39.55423 | 2.75911 | 52 ft | 118 kts | 237° |
| 2026-05-04 15:12 | 39.55042 | 2.75103 | 42 ft | 81 kts | 238° |
| 2026-05-04 15:12 | 39.54880 | 2.74755 | 42 ft | 24 kts | 241° |
| 2026-05-04 15:13 | 39.54824 | 2.74559 | 42 ft | 21 kts | 256° |
| 2026-05-04 15:13 | 39.54805 | 2.74428 | 42 ft | 11 kts | 266° |
| 2026-05-04 15:13 | 39.54804 | 2.74354 | 42 ft | 3 kts | 269° |
| 2026-05-04 15:13 | 39.54804 | 2.74314 | 42 ft | 6 kts | 269° |
| 2026-05-04 15:14 | 39.54803 | 2.74267 | 42 ft | 7 kts | 269° |
| 2026-05-04 15:14 | 39.54812 | 2.74177 | 42 ft | 13 kts | 290° |
| 2026-05-04 15:14 | 39.54885 | 2.74080 | 42 ft | 16 kts | 328° |
| 2026-05-04 15:14 | 39.54989 | 2.73998 | 42 ft | 19 kts | 328° |
| 2026-05-04 15:15 | 39.55104 | 2.73907 | 42 ft | 18 kts | 329° |
| 2026-05-04 15:15 | 39.55213 | 2.73823 | 42 ft | 20 kts | 329° |
| 2026-05-04 15:15 | 39.55336 | 2.73724 | 42 ft | 22 kts | 328° |
| 2026-05-04 15:16 | 39.55499 | 2.73588 | 42 ft | 7 kts | 306° |
| 2026-05-04 15:16 | 39.55487 | 2.73540 | 42 ft | 7 kts | 242° |
| 2026-05-04 15:16 | 39.55420 | 2.73401 | 42 ft | 11 kts | 238° |
| 2026-05-04 15:17 | 39.55374 | 2.73301 | 42 ft | 14 kts | 239° |
| 2026-05-04 15:17 | 39.55239 | 2.73016 | 42 ft | 21 kts | 237° |
| 2026-05-04 15:17 | 39.55181 | 2.72897 | 42 ft | 9 kts | 236° |
| 2026-05-04 15:18 | 39.55145 | 2.72889 | 42 ft | 6 kts | 170° |
| 2026-05-04 15:18 | 39.55124 | 2.72895 | 42 ft | 1 kts | 166° |
| 2026-05-04 15:18 | 39.55118 | 2.72897 | 42 ft | 2 kts | 165° |
| 2026-05-04 15:19 | 39.55099 | 2.72903 | 42 ft | 0 kts | 164° |